sensor_id;sensor_type;location;lat;lon;timestamp;P1;durP1;ratioP1;P2;durP2;ratioP2
40637;SDS011;26336;44.696;10.622;2022-10-12T00:00:27;28.63;;;20.52;;
40637;SDS011;26336;44.696;10.622;2022-10-12T00:03:31;29.33;;;22.55;;
40637;SDS011;26336;44.696;10.622;2022-10-12T00:06:36;28.15;;;21.27;;
40637;SDS011;26336;44.696;10.622;2022-10-12T00:09:40;29.75;;;21.45;;
40637;SDS011;26336;44.696;10.622;2022-10-12T00:12:44;27.73;;;21.85;;
40637;SDS011;26336;44.696;10.622;2022-10-12T00:15:48;26.90;;;20.50;;
40637;SDS011;26336;44.696;10.622;2022-10-12T00:18:53;30.55;;;23.20;;
40637;SDS011;26336;44.696;10.622;2022-10-12T00:21:58;29.30;;;21.40;;
40637;SDS011;26336;44.696;10.622;2022-10-12T00:25:02;30.95;;;23.05;;
40637;SDS011;26336;44.696;10.622;2022-10-12T00:28:06;30.67;;;23.15;;
40637;SDS011;26336;44.696;10.622;2022-10-12T00:31:12;30.67;;;23.52;;
40637;SDS011;26336;44.696;10.622;2022-10-12T00:34:18;29.35;;;22.52;;
40637;SDS011;26336;44.696;10.622;2022-10-12T00:37:22;30.20;;;23.33;;
40637;SDS011;26336;44.696;10.622;2022-10-12T00:40:26;28.77;;;22.85;;
40637;SDS011;26336;44.696;10.622;2022-10-12T00:43:31;29.52;;;23.00;;
40637;SDS011;26336;44.696;10.622;2022-10-12T00:46:38;33.95;;;23.38;;
40637;SDS011;26336;44.696;10.622;2022-10-12T00:49:47;32.40;;;22.95;;
40637;SDS011;26336;44.696;10.622;2022-10-12T00:53:08;28.13;;;22.08;;
40637;SDS011;26336;44.696;10.622;2022-10-12T00:56:19;28.52;;;22.85;;
40637;SDS011;26336;44.696;10.622;2022-10-12T00:59:37;30.98;;;23.00;;
40637;SDS011;26336;44.696;10.622;2022-10-12T01:02:46;37.38;;;25.02;;
40637;SDS011;26336;44.696;10.622;2022-10-12T01:05:52;32.00;;;22.88;;
40637;SDS011;26336;44.696;10.622;2022-10-12T01:08:57;28.88;;;23.00;;
40637;SDS011;26336;44.696;10.622;2022-10-12T01:12:02;30.10;;;24.13;;
40637;SDS011;26336;44.696;10.622;2022-10-12T01:15:08;28.45;;;23.30;;
40637;SDS011;26336;44.696;10.622;2022-10-12T01:18:18;33.47;;;24.80;;
40637;SDS011;26336;44.696;10.622;2022-10-12T01:21:40;30.63;;;22.75;;
40637;SDS011;26336;44.696;10.622;2022-10-12T01:27:58;30.85;;;23.10;;
40637;SDS011;26336;44.696;10.622;2022-10-12T01:31:18;29.00;;;23.70;;
40637;SDS011;26336;44.696;10.622;2022-10-12T01:34:34;30.33;;;24.00;;
40637;SDS011;26336;44.696;10.622;2022-10-12T01:41:17;35.85;;;25.08;;
40637;SDS011;26336;44.696;10.622;2022-10-12T01:44:25;31.55;;;24.48;;
40637;SDS011;26336;44.696;10.622;2022-10-12T01:47:29;36.10;;;24.90;;
40637;SDS011;26336;44.696;10.622;2022-10-12T01:50:50;35.30;;;24.45;;
40637;SDS011;26336;44.696;10.622;2022-10-12T02:04:05;31.85;;;23.80;;
40637;SDS011;26336;44.696;10.622;2022-10-12T02:07:25;28.60;;;22.30;;
40637;SDS011;26336;44.696;10.622;2022-10-12T02:10:39;31.92;;;22.20;;
40637;SDS011;26336;44.696;10.622;2022-10-12T02:13:50;38.25;;;24.63;;
40637;SDS011;26336;44.696;10.622;2022-10-12T02:17:02;30.85;;;24.48;;
40637;SDS011;26336;44.696;10.622;2022-10-12T02:20:11;32.17;;;23.88;;
40637;SDS011;26336;44.696;10.622;2022-10-12T02:23:18;32.67;;;22.63;;
40637;SDS011;26336;44.696;10.622;2022-10-12T02:26:26;33.63;;;23.05;;
40637;SDS011;26336;44.696;10.622;2022-10-12T02:29:33;33.40;;;23.88;;
40637;SDS011;26336;44.696;10.622;2022-10-12T02:36:11;30.08;;;22.20;;
40637;SDS011;26336;44.696;10.622;2022-10-12T02:39:25;30.52;;;21.95;;
40637;SDS011;26336;44.696;10.622;2022-10-12T02:42:35;32.40;;;22.33;;
40637;SDS011;26336;44.696;10.622;2022-10-12T02:45:43;34.63;;;25.10;;
40637;SDS011;26336;44.696;10.622;2022-10-12T02:48:50;31.00;;;21.98;;
40637;SDS011;26336;44.696;10.622;2022-10-12T02:51:57;28.15;;;22.02;;
40637;SDS011;26336;44.696;10.622;2022-10-12T02:55:02;35.67;;;26.25;;
40637;SDS011;26336;44.696;10.622;2022-10-12T02:58:06;32.28;;;23.52;;
40637;SDS011;26336;44.696;10.622;2022-10-12T03:01:11;28.00;;;22.70;;
40637;SDS011;26336;44.696;10.622;2022-10-12T03:04:15;34.00;;;24.48;;
40637;SDS011;26336;44.696;10.622;2022-10-12T03:07:19;29.55;;;23.48;;
40637;SDS011;26336;44.696;10.622;2022-10-12T03:10:23;32.50;;;24.33;;
40637;SDS011;26336;44.696;10.622;2022-10-12T03:13:27;29.95;;;23.08;;
40637;SDS011;26336;44.696;10.622;2022-10-12T03:16:31;30.20;;;22.40;;
40637;SDS011;26336;44.696;10.622;2022-10-12T03:19:35;33.95;;;24.40;;
40637;SDS011;26336;44.696;10.622;2022-10-12T03:22:42;30.90;;;22.60;;
40637;SDS011;26336;44.696;10.622;2022-10-12T03:25:46;31.42;;;22.48;;
40637;SDS011;26336;44.696;10.622;2022-10-12T03:28:49;30.20;;;22.58;;
40637;SDS011;26336;44.696;10.622;2022-10-12T03:31:53;31.60;;;22.85;;
40637;SDS011;26336;44.696;10.622;2022-10-12T03:34:57;34.40;;;23.17;;
40637;SDS011;26336;44.696;10.622;2022-10-12T03:38:01;32.25;;;23.33;;
40637;SDS011;26336;44.696;10.622;2022-10-12T03:41:24;32.85;;;22.08;;
40637;SDS011;26336;44.696;10.622;2022-10-12T03:44:27;33.45;;;24.20;;
40637;SDS011;26336;44.696;10.622;2022-10-12T03:47:31;32.53;;;22.83;;
40637;SDS011;26336;44.696;10.622;2022-10-12T03:50:35;32.92;;;24.45;;
40637;SDS011;26336;44.696;10.622;2022-10-12T03:53:39;32.20;;;23.60;;
40637;SDS011;26336;44.696;10.622;2022-10-12T03:56:43;36.42;;;24.33;;
40637;SDS011;26336;44.696;10.622;2022-10-12T03:59:47;34.88;;;25.27;;
40637;SDS011;26336;44.696;10.622;2022-10-12T04:02:51;34.33;;;25.48;;
40637;SDS011;26336;44.696;10.622;2022-10-12T04:05:57;31.95;;;24.98;;
40637;SDS011;26336;44.696;10.622;2022-10-12T04:09:01;34.95;;;26.17;;
40637;SDS011;26336;44.696;10.622;2022-10-12T04:12:05;33.08;;;25.33;;
40637;SDS011;26336;44.696;10.622;2022-10-12T04:15:09;37.35;;;26.40;;
40637;SDS011;26336;44.696;10.622;2022-10-12T04:18:14;34.85;;;27.58;;
40637;SDS011;26336;44.696;10.622;2022-10-12T04:21:17;39.83;;;27.63;;
40637;SDS011;26336;44.696;10.622;2022-10-12T04:24:24;35.65;;;27.67;;
40637;SDS011;26336;44.696;10.622;2022-10-12T04:27:28;35.88;;;28.42;;
40637;SDS011;26336;44.696;10.622;2022-10-12T04:30:33;40.30;;;28.13;;
40637;SDS011;26336;44.696;10.622;2022-10-12T04:33:37;38.00;;;27.40;;
40637;SDS011;26336;44.696;10.622;2022-10-12T04:36:41;38.45;;;28.98;;
40637;SDS011;26336;44.696;10.622;2022-10-12T04:39:45;34.55;;;28.25;;
40637;SDS011;26336;44.696;10.622;2022-10-12T04:42:49;34.40;;;26.45;;
40637;SDS011;26336;44.696;10.622;2022-10-12T04:45:56;34.38;;;26.92;;
40637;SDS011;26336;44.696;10.622;2022-10-12T04:49:02;37.63;;;28.90;;
40637;SDS011;26336;44.696;10.622;2022-10-12T04:52:06;35.63;;;27.35;;
40637;SDS011;26336;44.696;10.622;2022-10-12T04:55:10;36.20;;;28.00;;
40637;SDS011;26336;44.696;10.622;2022-10-12T04:58:14;36.33;;;27.85;;
40637;SDS011;26336;44.696;10.622;2022-10-12T05:01:18;36.88;;;25.55;;
40637;SDS011;26336;44.696;10.622;2022-10-12T05:04:22;35.97;;;26.58;;
40637;SDS011;26336;44.696;10.622;2022-10-12T05:07:26;38.42;;;28.55;;
40637;SDS011;26336;44.696;10.622;2022-10-12T05:10:29;40.85;;;28.42;;
40637;SDS011;26336;44.696;10.622;2022-10-12T05:13:34;37.40;;;27.45;;
40637;SDS011;26336;44.696;10.622;2022-10-12T05:16:38;43.10;;;29.75;;
40637;SDS011;26336;44.696;10.622;2022-10-12T05:19:42;34.05;;;27.30;;
40637;SDS011;26336;44.696;10.622;2022-10-12T05:22:46;33.67;;;25.75;;
40637;SDS011;26336;44.696;10.622;2022-10-12T05:25:52;34.35;;;26.02;;
40637;SDS011;26336;44.696;10.622;2022-10-12T05:28:58;31.50;;;25.33;;
40637;SDS011;26336;44.696;10.622;2022-10-12T05:32:02;36.33;;;26.55;;
40637;SDS011;26336;44.696;10.622;2022-10-12T05:35:06;37.15;;;26.98;;
40637;SDS011;26336;44.696;10.622;2022-10-12T05:38:10;31.30;;;24.33;;
40637;SDS011;26336;44.696;10.622;2022-10-12T05:41:14;33.40;;;25.15;;
40637;SDS011;26336;44.696;10.622;2022-10-12T05:44:18;37.10;;;26.45;;
40637;SDS011;26336;44.696;10.622;2022-10-12T05:47:22;34.35;;;25.98;;
40637;SDS011;26336;44.696;10.622;2022-10-12T05:50:26;34.50;;;26.25;;
40637;SDS011;26336;44.696;10.622;2022-10-12T05:53:30;35.85;;;26.63;;
40637;SDS011;26336;44.696;10.622;2022-10-12T05:56:34;33.90;;;25.10;;
40637;SDS011;26336;44.696;10.622;2022-10-12T05:59:38;38.53;;;28.00;;
40637;SDS011;26336;44.696;10.622;2022-10-12T06:02:42;36.95;;;27.25;;
40637;SDS011;26336;44.696;10.622;2022-10-12T06:05:46;32.72;;;26.45;;
40637;SDS011;26336;44.696;10.622;2022-10-12T06:08:50;33.28;;;24.50;;
40637;SDS011;26336;44.696;10.622;2022-10-12T06:11:54;32.83;;;25.67;;
40637;SDS011;26336;44.696;10.622;2022-10-12T06:14:58;36.03;;;26.45;;
40637;SDS011;26336;44.696;10.622;2022-10-12T06:18:02;39.40;;;26.23;;
40637;SDS011;26336;44.696;10.622;2022-10-12T06:21:06;36.20;;;27.23;;
40637;SDS011;26336;44.696;10.622;2022-10-12T06:24:10;31.70;;;25.38;;
40637;SDS011;26336;44.696;10.622;2022-10-12T06:27:14;35.40;;;26.77;;
40637;SDS011;26336;44.696;10.622;2022-10-12T06:30:22;36.38;;;25.30;;
40637;SDS011;26336;44.696;10.622;2022-10-12T06:33:26;33.63;;;25.63;;
40637;SDS011;26336;44.696;10.622;2022-10-12T06:36:31;37.63;;;26.73;;
40637;SDS011;26336;44.696;10.622;2022-10-12T06:39:35;34.45;;;24.95;;
40637;SDS011;26336;44.696;10.622;2022-10-12T06:42:39;37.20;;;28.00;;
40637;SDS011;26336;44.696;10.622;2022-10-12T06:45:43;36.25;;;26.83;;
40637;SDS011;26336;44.696;10.622;2022-10-12T06:48:47;38.42;;;28.60;;
40637;SDS011;26336;44.696;10.622;2022-10-12T06:51:51;38.33;;;27.63;;
40637;SDS011;26336;44.696;10.622;2022-10-12T06:54:55;37.00;;;25.70;;
40637;SDS011;26336;44.696;10.622;2022-10-12T06:57:59;34.08;;;25.42;;
40637;SDS011;26336;44.696;10.622;2022-10-12T07:01:04;35.22;;;26.95;;
40637;SDS011;26336;44.696;10.622;2022-10-12T07:04:09;37.17;;;27.42;;
40637;SDS011;26336;44.696;10.622;2022-10-12T07:07:13;36.85;;;27.48;;
40637;SDS011;26336;44.696;10.622;2022-10-12T07:10:17;39.17;;;26.77;;
40637;SDS011;26336;44.696;10.622;2022-10-12T07:13:21;36.80;;;26.65;;
40637;SDS011;26336;44.696;10.622;2022-10-12T07:16:24;36.22;;;27.77;;
40637;SDS011;26336;44.696;10.622;2022-10-12T07:19:28;35.78;;;27.65;;
40637;SDS011;26336;44.696;10.622;2022-10-12T07:22:32;35.25;;;26.52;;
40637;SDS011;26336;44.696;10.622;2022-10-12T07:25:37;39.67;;;28.23;;
40637;SDS011;26336;44.696;10.622;2022-10-12T07:28:41;39.72;;;28.08;;
40637;SDS011;26336;44.696;10.622;2022-10-12T07:31:44;37.47;;;27.77;;
40637;SDS011;26336;44.696;10.622;2022-10-12T07:34:49;40.47;;;28.48;;
40637;SDS011;26336;44.696;10.622;2022-10-12T07:37:53;35.55;;;26.75;;
40637;SDS011;26336;44.696;10.622;2022-10-12T07:41:01;39.20;;;29.08;;
40637;SDS011;26336;44.696;10.622;2022-10-12T07:44:06;36.30;;;27.70;;
40637;SDS011;26336;44.696;10.622;2022-10-12T07:47:10;37.47;;;27.05;;
40637;SDS011;26336;44.696;10.622;2022-10-12T07:50:13;41.67;;;28.70;;
40637;SDS011;26336;44.696;10.622;2022-10-12T07:53:17;37.63;;;26.35;;
40637;SDS011;26336;44.696;10.622;2022-10-12T07:56:22;33.00;;;26.65;;
40637;SDS011;26336;44.696;10.622;2022-10-12T07:59:26;37.53;;;26.35;;
40637;SDS011;26336;44.696;10.622;2022-10-12T08:02:30;36.88;;;27.85;;
40637;SDS011;26336;44.696;10.622;2022-10-12T08:05:34;40.60;;;27.00;;
40637;SDS011;26336;44.696;10.622;2022-10-12T08:08:40;37.00;;;28.40;;
40637;SDS011;26336;44.696;10.622;2022-10-12T08:11:45;38.92;;;29.23;;
40637;SDS011;26336;44.696;10.622;2022-10-12T08:14:49;39.45;;;29.80;;
40637;SDS011;26336;44.696;10.622;2022-10-12T08:17:53;40.90;;;29.08;;
40637;SDS011;26336;44.696;10.622;2022-10-12T08:20:56;43.00;;;31.55;;
40637;SDS011;26336;44.696;10.622;2022-10-12T08:24:01;47.08;;;32.40;;
40637;SDS011;26336;44.696;10.622;2022-10-12T08:27:05;44.72;;;33.60;;
40637;SDS011;26336;44.696;10.622;2022-10-12T08:30:09;40.20;;;30.17;;
40637;SDS011;26336;44.696;10.622;2022-10-12T08:33:14;43.30;;;32.53;;
40637;SDS011;26336;44.696;10.622;2022-10-12T08:36:20;41.17;;;30.17;;
40637;SDS011;26336;44.696;10.622;2022-10-12T08:39:24;46.50;;;32.92;;
40637;SDS011;26336;44.696;10.622;2022-10-12T08:49:14;44.00;;;31.48;;
40637;SDS011;26336;44.696;10.622;2022-10-12T08:52:38;43.60;;;32.42;;
40637;SDS011;26336;44.696;10.622;2022-10-12T08:55:46;40.53;;;30.52;;
40637;SDS011;26336;44.696;10.622;2022-10-12T08:58:51;39.38;;;28.48;;
40637;SDS011;26336;44.696;10.622;2022-10-12T09:02:06;43.65;;;33.50;;
40637;SDS011;26336;44.696;10.622;2022-10-12T09:05:22;41.75;;;32.35;;
40637;SDS011;26336;44.696;10.622;2022-10-12T09:15:27;42.40;;;30.63;;
40637;SDS011;26336;44.696;10.622;2022-10-12T09:18:40;41.85;;;30.92;;
40637;SDS011;26336;44.696;10.622;2022-10-12T09:21:48;42.88;;;31.48;;
40637;SDS011;26336;44.696;10.622;2022-10-12T09:24:52;36.10;;;26.73;;
40637;SDS011;26336;44.696;10.622;2022-10-12T09:28:09;34.30;;;27.15;;
40637;SDS011;26336;44.696;10.622;2022-10-12T09:31:37;36.85;;;27.67;;
40637;SDS011;26336;44.696;10.622;2022-10-12T09:34:55;37.58;;;28.00;;
40637;SDS011;26336;44.696;10.622;2022-10-12T09:37:59;34.40;;;26.08;;
40637;SDS011;26336;44.696;10.622;2022-10-12T09:41:04;40.10;;;28.83;;
40637;SDS011;26336;44.696;10.622;2022-10-12T09:44:36;40.17;;;26.85;;
40637;SDS011;26336;44.696;10.622;2022-10-12T09:47:42;30.63;;;23.70;;
40637;SDS011;26336;44.696;10.622;2022-10-12T09:51:22;37.53;;;25.80;;
40637;SDS011;26336;44.696;10.622;2022-10-12T09:54:26;33.90;;;25.33;;
40637;SDS011;26336;44.696;10.622;2022-10-12T09:57:35;41.47;;;27.33;;
40637;SDS011;26336;44.696;10.622;2022-10-12T10:00:41;37.28;;;25.38;;
40637;SDS011;26336;44.696;10.622;2022-10-12T10:07:23;38.45;;;25.67;;
40637;SDS011;26336;44.696;10.622;2022-10-12T10:10:32;30.73;;;24.17;;
40637;SDS011;26336;44.696;10.622;2022-10-12T10:13:36;32.90;;;25.02;;
40637;SDS011;26336;44.696;10.622;2022-10-12T10:16:50;32.65;;;24.95;;
40637;SDS011;26336;44.696;10.622;2022-10-12T10:19:57;31.25;;;22.52;;
40637;SDS011;26336;44.696;10.622;2022-10-12T10:23:04;36.67;;;22.77;;
40637;SDS011;26336;44.696;10.622;2022-10-12T10:26:09;24.30;;;18.13;;
40637;SDS011;26336;44.696;10.622;2022-10-12T10:29:25;25.05;;;18.40;;
40637;SDS011;26336;44.696;10.622;2022-10-12T10:32:38;24.23;;;18.10;;
40637;SDS011;26336;44.696;10.622;2022-10-12T10:36:25;31.20;;;20.52;;
40637;SDS011;26336;44.696;10.622;2022-10-12T10:39:52;27.13;;;19.75;;
40637;SDS011;26336;44.696;10.622;2022-10-12T10:42:54;26.48;;;19.13;;
40637;SDS011;26336;44.696;10.622;2022-10-12T10:46:00;30.23;;;19.85;;
40637;SDS011;26336;44.696;10.622;2022-10-12T10:49:06;31.02;;;22.45;;
40637;SDS011;26336;44.696;10.622;2022-10-12T10:52:18;28.17;;;18.40;;
40637;SDS011;26336;44.696;10.622;2022-10-12T10:58:45;21.10;;;15.55;;
40637;SDS011;26336;44.696;10.622;2022-10-12T11:01:55;22.10;;;15.68;;
40637;SDS011;26336;44.696;10.622;2022-10-12T11:05:05;24.90;;;16.80;;
40637;SDS011;26336;44.696;10.622;2022-10-12T11:08:27;24.30;;;17.02;;
40637;SDS011;26336;44.696;10.622;2022-10-12T11:11:33;28.13;;;17.38;;
40637;SDS011;26336;44.696;10.622;2022-10-12T11:14:44;30.80;;;20.45;;
40637;SDS011;26336;44.696;10.622;2022-10-12T11:18:06;28.05;;;19.70;;
40637;SDS011;26336;44.696;10.622;2022-10-12T11:24:33;27.88;;;18.73;;
40637;SDS011;26336;44.696;10.622;2022-10-12T11:27:51;21.10;;;16.17;;
40637;SDS011;26336;44.696;10.622;2022-10-12T11:30:55;28.40;;;19.65;;
40637;SDS011;26336;44.696;10.622;2022-10-12T11:34:00;23.65;;;17.15;;
40637;SDS011;26336;44.696;10.622;2022-10-12T11:37:11;23.10;;;18.38;;
40637;SDS011;26336;44.696;10.622;2022-10-12T11:40:22;24.42;;;17.88;;
40637;SDS011;26336;44.696;10.622;2022-10-12T11:43:46;26.65;;;18.77;;
40637;SDS011;26336;44.696;10.622;2022-10-12T11:47:01;31.60;;;19.58;;
40637;SDS011;26336;44.696;10.622;2022-10-12T11:56:46;24.90;;;18.55;;
40637;SDS011;26336;44.696;10.622;2022-10-12T11:59:54;29.33;;;19.40;;
40637;SDS011;26336;44.696;10.622;2022-10-12T12:09:38;26.55;;;16.30;;
40637;SDS011;26336;44.696;10.622;2022-10-12T12:22:49;22.17;;;17.40;;
40637;SDS011;26336;44.696;10.622;2022-10-12T12:29:10;25.77;;;17.65;;
40637;SDS011;26336;44.696;10.622;2022-10-12T12:32:22;21.95;;;15.45;;
40637;SDS011;26336;44.696;10.622;2022-10-12T12:35:39;24.75;;;16.42;;
40637;SDS011;26336;44.696;10.622;2022-10-12T12:38:55;19.17;;;13.40;;
40637;SDS011;26336;44.696;10.622;2022-10-12T12:42:00;22.10;;;14.45;;
40637;SDS011;26336;44.696;10.622;2022-10-12T12:45:37;17.85;;;14.77;;
40637;SDS011;26336;44.696;10.622;2022-10-12T12:51:43;21.98;;;14.93;;
40637;SDS011;26336;44.696;10.622;2022-10-12T13:01:43;25.92;;;14.88;;
40637;SDS011;26336;44.696;10.622;2022-10-12T13:21:49;21.63;;;13.25;;
40637;SDS011;26336;44.696;10.622;2022-10-12T13:24:58;25.90;;;16.58;;
40637;SDS011;26336;44.696;10.622;2022-10-12T13:28:11;26.80;;;16.65;;
40637;SDS011;26336;44.696;10.622;2022-10-12T13:34:37;24.50;;;16.88;;
40637;SDS011;26336;44.696;10.622;2022-10-12T13:37:57;23.35;;;16.52;;
40637;SDS011;26336;44.696;10.622;2022-10-12T13:41:21;24.25;;;16.77;;
40637;SDS011;26336;44.696;10.622;2022-10-12T13:44:33;22.27;;;15.05;;
40637;SDS011;26336;44.696;10.622;2022-10-12T13:47:40;27.70;;;17.08;;
40637;SDS011;26336;44.696;10.622;2022-10-12T13:50:52;23.58;;;15.25;;
40637;SDS011;26336;44.696;10.622;2022-10-12T13:54:01;22.73;;;15.00;;
40637;SDS011;26336;44.696;10.622;2022-10-12T14:00:32;19.55;;;14.57;;
40637;SDS011;26336;44.696;10.622;2022-10-12T14:03:40;18.75;;;13.35;;
40637;SDS011;26336;44.696;10.622;2022-10-12T14:06:47;19.10;;;13.00;;
40637;SDS011;26336;44.696;10.622;2022-10-12T14:09:58;17.55;;;12.73;;
40637;SDS011;26336;44.696;10.622;2022-10-12T14:13:12;19.58;;;12.98;;
40637;SDS011;26336;44.696;10.622;2022-10-12T14:16:17;20.92;;;12.90;;
40637;SDS011;26336;44.696;10.622;2022-10-12T14:19:33;21.50;;;13.55;;
40637;SDS011;26336;44.696;10.622;2022-10-12T14:22:45;19.58;;;12.90;;
40637;SDS011;26336;44.696;10.622;2022-10-12T14:25:51;19.45;;;12.38;;
40637;SDS011;26336;44.696;10.622;2022-10-12T14:28:57;19.25;;;12.23;;
40637;SDS011;26336;44.696;10.622;2022-10-12T14:32:03;19.88;;;12.70;;
40637;SDS011;26336;44.696;10.622;2022-10-12T14:35:31;17.17;;;10.75;;
40637;SDS011;26336;44.696;10.622;2022-10-12T14:41:48;18.92;;;12.50;;
40637;SDS011;26336;44.696;10.622;2022-10-12T14:44:53;16.67;;;11.32;;
40637;SDS011;26336;44.696;10.622;2022-10-12T14:47:57;14.38;;;10.20;;
40637;SDS011;26336;44.696;10.622;2022-10-12T14:51:02;17.60;;;11.32;;
40637;SDS011;26336;44.696;10.622;2022-10-12T14:54:07;15.40;;;10.38;;
40637;SDS011;26336;44.696;10.622;2022-10-12T14:57:15;14.35;;;9.15;;
40637;SDS011;26336;44.696;10.622;2022-10-12T15:03:26;17.65;;;9.40;;
40637;SDS011;26336;44.696;10.622;2022-10-12T15:06:30;16.73;;;8.85;;
40637;SDS011;26336;44.696;10.622;2022-10-12T15:09:33;14.00;;;8.80;;
40637;SDS011;26336;44.696;10.622;2022-10-12T15:12:37;12.15;;;8.02;;
40637;SDS011;26336;44.696;10.622;2022-10-12T15:15:43;12.43;;;8.38;;
40637;SDS011;26336;44.696;10.622;2022-10-12T15:18:49;13.23;;;8.35;;
40637;SDS011;26336;44.696;10.622;2022-10-12T15:21:53;16.55;;;8.45;;
40637;SDS011;26336;44.696;10.622;2022-10-12T15:24:57;15.50;;;9.10;;
40637;SDS011;26336;44.696;10.622;2022-10-12T15:28:02;11.23;;;8.18;;
40637;SDS011;26336;44.696;10.622;2022-10-12T15:31:14;14.15;;;7.65;;
40637;SDS011;26336;44.696;10.622;2022-10-12T15:34:18;18.27;;;8.55;;
40637;SDS011;26336;44.696;10.622;2022-10-12T15:37:22;13.98;;;7.50;;
40637;SDS011;26336;44.696;10.622;2022-10-12T15:40:30;12.13;;;8.45;;
40637;SDS011;26336;44.696;10.622;2022-10-12T15:43:35;49.10;;;36.60;;
40637;SDS011;26336;44.696;10.622;2022-10-12T15:46:40;12.45;;;7.13;;
40637;SDS011;26336;44.696;10.622;2022-10-12T15:49:46;15.82;;;7.75;;
40637;SDS011;26336;44.696;10.622;2022-10-12T15:52:50;12.27;;;6.47;;
40637;SDS011;26336;44.696;10.622;2022-10-12T15:55:54;13.70;;;6.53;;
40637;SDS011;26336;44.696;10.622;2022-10-12T15:58:58;13.32;;;7.15;;
40637;SDS011;26336;44.696;10.622;2022-10-12T16:02:02;13.75;;;7.03;;
40637;SDS011;26336;44.696;10.622;2022-10-12T16:05:29;13.98;;;6.68;;
40637;SDS011;26336;44.696;10.622;2022-10-12T16:08:33;10.30;;;6.25;;
40637;SDS011;26336;44.696;10.622;2022-10-12T16:11:38;11.50;;;6.30;;
40637;SDS011;26336;44.696;10.622;2022-10-12T16:14:42;13.60;;;6.72;;
40637;SDS011;26336;44.696;10.622;2022-10-12T16:17:46;13.77;;;6.13;;
40637;SDS011;26336;44.696;10.622;2022-10-12T16:20:54;13.02;;;7.05;;
40637;SDS011;26336;44.696;10.622;2022-10-12T16:23:58;14.20;;;6.82;;
40637;SDS011;26336;44.696;10.622;2022-10-12T16:27:03;11.57;;;6.75;;
40637;SDS011;26336;44.696;10.622;2022-10-12T16:30:08;9.45;;;5.93;;
40637;SDS011;26336;44.696;10.622;2022-10-12T16:33:13;15.65;;;6.68;;
40637;SDS011;26336;44.696;10.622;2022-10-12T16:36:17;12.65;;;6.22;;
40637;SDS011;26336;44.696;10.622;2022-10-12T16:39:21;12.65;;;6.40;;
40637;SDS011;26336;44.696;10.622;2022-10-12T16:42:25;12.40;;;6.93;;
40637;SDS011;26336;44.696;10.622;2022-10-12T16:45:29;16.88;;;6.95;;
40637;SDS011;26336;44.696;10.622;2022-10-12T16:48:33;7.80;;;6.40;;
40637;SDS011;26336;44.696;10.622;2022-10-12T16:51:37;12.35;;;6.65;;
40637;SDS011;26336;44.696;10.622;2022-10-12T16:54:42;11.45;;;6.93;;
40637;SDS011;26336;44.696;10.622;2022-10-12T16:57:46;12.23;;;7.65;;
40637;SDS011;26336;44.696;10.622;2022-10-12T17:00:50;11.60;;;6.55;;
40637;SDS011;26336;44.696;10.622;2022-10-12T17:03:54;10.20;;;6.43;;
40637;SDS011;26336;44.696;10.622;2022-10-12T17:06:58;11.43;;;6.97;;
40637;SDS011;26336;44.696;10.622;2022-10-12T17:10:02;10.43;;;7.05;;
40637;SDS011;26336;44.696;10.622;2022-10-12T17:13:06;8.75;;;6.03;;
40637;SDS011;26336;44.696;10.622;2022-10-12T17:16:11;13.02;;;7.80;;
40637;SDS011;26336;44.696;10.622;2022-10-12T17:19:34;13.68;;;7.50;;
40637;SDS011;26336;44.696;10.622;2022-10-12T17:22:43;15.98;;;8.25;;
40637;SDS011;26336;44.696;10.622;2022-10-12T17:25:47;16.10;;;7.38;;
40637;SDS011;26336;44.696;10.622;2022-10-12T17:28:51;9.73;;;7.03;;
40637;SDS011;26336;44.696;10.622;2022-10-12T17:31:55;17.77;;;11.45;;
40637;SDS011;26336;44.696;10.622;2022-10-12T17:35:05;16.92;;;10.90;;
40637;SDS011;26336;44.696;10.622;2022-10-12T17:38:10;16.35;;;10.35;;
40637;SDS011;26336;44.696;10.622;2022-10-12T17:41:14;12.07;;;9.00;;
40637;SDS011;26336;44.696;10.622;2022-10-12T17:44:18;16.80;;;9.23;;
40637;SDS011;26336;44.696;10.622;2022-10-12T17:47:22;17.88;;;9.30;;
40637;SDS011;26336;44.696;10.622;2022-10-12T17:50:26;13.02;;;9.93;;
40637;SDS011;26336;44.696;10.622;2022-10-12T17:53:30;16.02;;;10.50;;
40637;SDS011;26336;44.696;10.622;2022-10-12T17:56:35;15.13;;;9.23;;
40637;SDS011;26336;44.696;10.622;2022-10-12T17:59:39;13.95;;;9.57;;
40637;SDS011;26336;44.696;10.622;2022-10-12T18:02:42;13.32;;;9.35;;
40637;SDS011;26336;44.696;10.622;2022-10-12T18:05:48;13.02;;;9.10;;
40637;SDS011;26336;44.696;10.622;2022-10-12T18:08:52;14.57;;;10.20;;
40637;SDS011;26336;44.696;10.622;2022-10-12T18:11:58;13.95;;;10.05;;
40637;SDS011;26336;44.696;10.622;2022-10-12T18:15:02;17.05;;;10.65;;
40637;SDS011;26336;44.696;10.622;2022-10-12T18:18:09;16.30;;;11.80;;
40637;SDS011;26336;44.696;10.622;2022-10-12T18:21:13;18.25;;;10.68;;
40637;SDS011;26336;44.696;10.622;2022-10-12T18:24:17;15.20;;;11.68;;
40637;SDS011;26336;44.696;10.622;2022-10-12T18:27:23;20.17;;;11.60;;
40637;SDS011;26336;44.696;10.622;2022-10-12T18:30:27;21.00;;;12.82;;
40637;SDS011;26336;44.696;10.622;2022-10-12T18:33:31;14.32;;;9.98;;
40637;SDS011;26336;44.696;10.622;2022-10-12T18:36:35;19.13;;;11.15;;
40637;SDS011;26336;44.696;10.622;2022-10-12T18:39:40;20.77;;;12.23;;
40637;SDS011;26336;44.696;10.622;2022-10-12T18:42:46;20.83;;;11.82;;
40637;SDS011;26336;44.696;10.622;2022-10-12T18:45:51;16.88;;;11.43;;
40637;SDS011;26336;44.696;10.622;2022-10-12T18:48:55;17.35;;;11.05;;
40637;SDS011;26336;44.696;10.622;2022-10-12T18:51:59;16.08;;;11.27;;
40637;SDS011;26336;44.696;10.622;2022-10-12T18:55:03;18.33;;;10.60;;
40637;SDS011;26336;44.696;10.622;2022-10-12T18:58:07;14.93;;;10.98;;
40637;SDS011;26336;44.696;10.622;2022-10-12T19:01:12;16.13;;;11.45;;
40637;SDS011;26336;44.696;10.622;2022-10-12T19:04:18;16.42;;;11.52;;
40637;SDS011;26336;44.696;10.622;2022-10-12T19:07:23;17.92;;;11.73;;
40637;SDS011;26336;44.696;10.622;2022-10-12T19:10:28;17.40;;;11.13;;
40637;SDS011;26336;44.696;10.622;2022-10-12T19:13:32;16.90;;;11.05;;
40637;SDS011;26336;44.696;10.622;2022-10-12T19:16:40;17.42;;;13.15;;
40637;SDS011;26336;44.696;10.622;2022-10-12T19:19:45;18.70;;;12.43;;
40637;SDS011;26336;44.696;10.622;2022-10-12T19:22:49;20.65;;;13.48;;
40637;SDS011;26336;44.696;10.622;2022-10-12T19:25:53;14.82;;;11.80;;
40637;SDS011;26336;44.696;10.622;2022-10-12T19:28:57;18.60;;;12.93;;
40637;SDS011;26336;44.696;10.622;2022-10-12T19:32:01;16.40;;;13.00;;
40637;SDS011;26336;44.696;10.622;2022-10-12T19:35:05;16.58;;;12.68;;
40637;SDS011;26336;44.696;10.622;2022-10-12T19:38:09;21.58;;;13.40;;
40637;SDS011;26336;44.696;10.622;2022-10-12T19:41:13;17.92;;;12.48;;
40637;SDS011;26336;44.696;10.622;2022-10-12T19:44:18;19.60;;;13.50;;
40637;SDS011;26336;44.696;10.622;2022-10-12T19:47:22;21.23;;;14.35;;
40637;SDS011;26336;44.696;10.622;2022-10-12T19:50:26;18.05;;;14.23;;